sensor_id;sensor_type;location;lat;lon;timestamp;pressure;altitude;pressure_sealevel;temperature;humidity
43486;BME280;30447;48.742;8.972;2023-06-26T00:01:02;96780.31;;;17.64;78.67
43486;BME280;30447;48.742;8.972;2023-06-26T00:03:29;96781.38;;;17.58;78.32
43486;BME280;30447;48.742;8.972;2023-06-26T00:05:55;96778.66;;;17.62;78.73
43486;BME280;30447;48.742;8.972;2023-06-26T00:08:27;96778.56;;;17.65;78.46
43486;BME280;30447;48.742;8.972;2023-06-26T00:10:54;96780.41;;;17.63;77.96
43486;BME280;30447;48.742;8.972;2023-06-26T00:13:22;96774.28;;;17.62;78.54
43486;BME280;30447;48.742;8.972;2023-06-26T00:15:50;96778.84;;;17.55;78.95
43486;BME280;30447;48.742;8.972;2023-06-26T00:18:17;96787.59;;;17.56;78.85
43486;BME280;30447;48.742;8.972;2023-06-26T00:20:44;96790.56;;;17.43;78.43
43486;BME280;30447;48.742;8.972;2023-06-26T00:23:12;96798.41;;;17.43;79.07
43486;BME280;30447;48.742;8.972;2023-06-26T00:25:39;96794.13;;;17.41;78.25
43486;BME280;30447;48.742;8.972;2023-06-26T00:28:06;96790.03;;;17.32;79.13
43486;BME280;30447;48.742;8.972;2023-06-26T00:30:32;96792.78;;;17.27;79.66
43486;BME280;30447;48.742;8.972;2023-06-26T00:32:59;96795.94;;;17.39;79.42
43486;BME280;30447;48.742;8.972;2023-06-26T00:35:25;96789.25;;;17.28;79.18
43486;BME280;30447;48.742;8.972;2023-06-26T00:37:52;96788.59;;;17.22;79.91
43486;BME280;30447;48.742;8.972;2023-06-26T00:40:19;96787.66;;;17.23;79.59
43486;BME280;30447;48.742;8.972;2023-06-26T00:42:45;96788.22;;;17.34;79.24
43486;BME280;30447;48.742;8.972;2023-06-26T00:45:12;96784.47;;;17.13;79.59
43486;BME280;30447;48.742;8.972;2023-06-26T00:47:39;96794.16;;;17.09;80.18
43486;BME280;30447;48.742;8.972;2023-06-26T00:50:06;96793.53;;;16.99;79.95
43486;BME280;30447;48.742;8.972;2023-06-26T00:52:33;96788.38;;;16.96;80.95
43486;BME280;30447;48.742;8.972;2023-06-26T00:55:01;96785.75;;;16.96;80.78
43486;BME280;30447;48.742;8.972;2023-06-26T00:57:28;96784.75;;;17.03;80.52
43486;BME280;30447;48.742;8.972;2023-06-26T00:59:56;96787.19;;;17.40;79.38
43486;BME280;30447;48.742;8.972;2023-06-26T01:02:23;96780.22;;;17.09;79.21
43486;BME280;30447;48.742;8.972;2023-06-26T01:04:52;96784.34;;;16.84;80.14
43486;BME280;30447;48.742;8.972;2023-06-26T01:07:21;96783.81;;;16.71;81.32
43486;BME280;30447;48.742;8.972;2023-06-26T01:09:49;96778.00;;;16.61;81.26
43486;BME280;30447;48.742;8.972;2023-06-26T01:12:15;96782.09;;;16.72;80.38
43486;BME280;30447;48.742;8.972;2023-06-26T01:14:42;96780.66;;;16.60;81.33
43486;BME280;30447;48.742;8.972;2023-06-26T01:17:10;96777.34;;;16.53;81.45
43486;BME280;30447;48.742;8.972;2023-06-26T01:19:41;96778.28;;;16.50;81.99
43486;BME280;30447;48.742;8.972;2023-06-26T01:27:55;96765.06;;;16.57;81.85
43486;BME280;30447;48.742;8.972;2023-06-26T01:30:25;96776.03;;;16.36;82.91
43486;BME280;30447;48.742;8.972;2023-06-26T01:32:52;96777.13;;;16.28;83.65
43486;BME280;30447;48.742;8.972;2023-06-26T01:35:19;96759.59;;;16.31;82.72
43486;BME280;30447;48.742;8.972;2023-06-26T01:37:46;96768.72;;;16.49;82.88
43486;BME280;30447;48.742;8.972;2023-06-26T01:40:12;96767.75;;;16.53;82.49
43486;BME280;30447;48.742;8.972;2023-06-26T01:42:39;96763.66;;;16.43;83.36
43486;BME280;30447;48.742;8.972;2023-06-26T01:45:24;96762.44;;;16.57;82.97
43486;BME280;30447;48.742;8.972;2023-06-26T01:48:01;96765.56;;;16.36;83.50
43486;BME280;30447;48.742;8.972;2023-06-26T01:50:33;96762.28;;;16.28;83.39
43486;BME280;30447;48.742;8.972;2023-06-26T01:53:11;96762.47;;;16.22;82.61
43486;BME280;30447;48.742;8.972;2023-06-26T01:56:07;96749.62;;;16.12;82.91
43486;BME280;30447;48.742;8.972;2023-06-26T01:58:46;96754.94;;;16.09;83.11
43486;BME280;30447;48.742;8.972;2023-06-26T02:01:14;96759.44;;;16.04;84.05
43486;BME280;30447;48.742;8.972;2023-06-26T02:03:41;96758.69;;;15.99;84.73
43486;BME280;30447;48.742;8.972;2023-06-26T02:06:08;96756.16;;;15.94;84.39
43486;BME280;30447;48.742;8.972;2023-06-26T02:08:35;96757.91;;;15.94;84.66
43486;BME280;30447;48.742;8.972;2023-06-26T02:11:02;96760.41;;;16.00;84.31
43486;BME280;30447;48.742;8.972;2023-06-26T02:13:29;96765.88;;;15.87;84.67
43486;BME280;30447;48.742;8.972;2023-06-26T02:15:55;96759.91;;;15.82;84.87
43486;BME280;30447;48.742;8.972;2023-06-26T02:18:22;96766.94;;;15.80;85.52
43486;BME280;30447;48.742;8.972;2023-06-26T02:20:49;96766.25;;;15.72;85.74
43486;BME280;30447;48.742;8.972;2023-06-26T02:23:16;96760.63;;;15.89;85.32
43486;BME280;30447;48.742;8.972;2023-06-26T02:25:43;96767.56;;;15.89;84.97
43486;BME280;30447;48.742;8.972;2023-06-26T02:28:09;96764.97;;;15.89;83.81
43486;BME280;30447;48.742;8.972;2023-06-26T02:30:36;96770.37;;;15.81;83.88
43486;BME280;30447;48.742;8.972;2023-06-26T02:33:02;96760.88;;;15.78;83.77
43486;BME280;30447;48.742;8.972;2023-06-26T02:35:29;96759.06;;;15.82;83.69
43486;BME280;30447;48.742;8.972;2023-06-26T02:37:56;96760.00;;;15.79;85.15
43486;BME280;30447;48.742;8.972;2023-06-26T02:40:22;96766.97;;;15.79;85.87
43486;BME280;30447;48.742;8.972;2023-06-26T02:42:49;96767.91;;;15.74;85.86
43486;BME280;30447;48.742;8.972;2023-06-26T02:45:15;96769.19;;;15.58;85.86
43486;BME280;30447;48.742;8.972;2023-06-26T02:47:42;96757.72;;;15.64;85.85
43486;BME280;30447;48.742;8.972;2023-06-26T02:50:09;96760.47;;;15.57;85.95
43486;BME280;30447;48.742;8.972;2023-06-26T02:52:35;96766.59;;;15.56;86.03
43486;BME280;30447;48.742;8.972;2023-06-26T02:55:03;96763.34;;;15.46;86.26
43486;BME280;30447;48.742;8.972;2023-06-26T02:57:31;96750.38;;;15.42;85.77
43486;BME280;30447;48.742;8.972;2023-06-26T02:59:57;96761.50;;;15.52;85.40
43486;BME280;30447;48.742;8.972;2023-06-26T03:02:24;96765.88;;;15.50;86.02
43486;BME280;30447;48.742;8.972;2023-06-26T03:04:51;96773.97;;;15.39;86.44
43486;BME280;30447;48.742;8.972;2023-06-26T03:07:19;96770.47;;;15.40;86.45
43486;BME280;30447;48.742;8.972;2023-06-26T03:09:45;96769.00;;;15.26;86.67
43486;BME280;30447;48.742;8.972;2023-06-26T03:12:12;96764.41;;;15.36;86.32
43486;BME280;30447;48.742;8.972;2023-06-26T03:14:38;96773.28;;;15.29;86.28
43486;BME280;30447;48.742;8.972;2023-06-26T03:17:05;96770.81;;;15.23;87.28
43486;BME280;30447;48.742;8.972;2023-06-26T03:19:33;96769.16;;;15.18;87.43
43486;BME280;30447;48.742;8.972;2023-06-26T03:22:00;96768.13;;;15.26;87.32
43486;BME280;30447;48.742;8.972;2023-06-26T03:24:26;96768.97;;;15.28;87.59
43486;BME280;30447;48.742;8.972;2023-06-26T03:26:53;96766.94;;;15.41;86.49
43486;BME280;30447;48.742;8.972;2023-06-26T03:29:19;96768.13;;;15.26;87.08
43486;BME280;30447;48.742;8.972;2023-06-26T03:31:46;96766.44;;;15.23;87.63
43486;BME280;30447;48.742;8.972;2023-06-26T03:34:13;96768.19;;;15.24;87.75
43486;BME280;30447;48.742;8.972;2023-06-26T03:36:39;96768.72;;;14.98;89.02
43486;BME280;30447;48.742;8.972;2023-06-26T03:39:06;96765.75;;;15.15;88.77
43486;BME280;30447;48.742;8.972;2023-06-26T03:41:33;96770.81;;;15.23;88.09
43486;BME280;30447;48.742;8.972;2023-06-26T03:43:59;96767.44;;;15.19;88.01
43486;BME280;30447;48.742;8.972;2023-06-26T03:46:27;96767.53;;;15.13;88.98
43486;BME280;30447;48.742;8.972;2023-06-26T03:48:55;96769.28;;;15.14;88.75
43486;BME280;30447;48.742;8.972;2023-06-26T03:51:21;52078.37;;;-147.61;100.00
43486;BME280;30447;48.742;8.972;2023-06-26T03:53:48;52078.37;;;-147.61;100.00
43486;BME280;30447;48.742;8.972;2023-06-26T03:56:15;52078.37;;;-147.61;100.00
43486;BME280;30447;48.742;8.972;2023-06-26T03:58:41;52078.37;;;-147.61;100.00
43486;BME280;30447;48.742;8.972;2023-06-26T04:01:08;52078.37;;;-147.61;100.00
43486;BME280;30447;48.742;8.972;2023-06-26T04:03:34;52078.37;;;-147.61;100.00
43486;BME280;30447;48.742;8.972;2023-06-26T04:06:01;52078.37;;;-147.61;100.00
43486;BME280;30447;48.742;8.972;2023-06-26T04:08:28;52078.37;;;-147.61;100.00
43486;BME280;30447;48.742;8.972;2023-06-26T04:10:54;52078.37;;;-147.61;100.00
43486;BME280;30447;48.742;8.972;2023-06-26T04:13:23;52078.37;;;-147.61;100.00
43486;BME280;30447;48.742;8.972;2023-06-26T04:15:50;52078.37;;;-147.61;100.00
43486;BME280;30447;48.742;8.972;2023-06-26T04:18:17;52078.37;;;-147.61;100.00
43486;BME280;30447;48.742;8.972;2023-06-26T04:21:07;52078.37;;;-147.61;100.00
43486;BME280;30447;48.742;8.972;2023-06-26T04:23:39;52078.37;;;-147.61;100.00
43486;BME280;30447;48.742;8.972;2023-06-26T04:26:07;52078.37;;;-147.61;100.00
43486;BME280;30447;48.742;8.972;2023-06-26T04:28:35;52078.37;;;-147.61;100.00
43486;BME280;30447;48.742;8.972;2023-06-26T04:31:02;52078.37;;;-147.61;100.00
43486;BME280;30447;48.742;8.972;2023-06-26T04:33:32;52078.37;;;-147.61;100.00
43486;BME280;30447;48.742;8.972;2023-06-26T04:35:58;52078.37;;;-147.61;100.00
43486;BME280;30447;48.742;8.972;2023-06-26T04:38:33;52078.37;;;-147.61;100.00
43486;BME280;30447;48.742;8.972;2023-06-26T04:41:00;52078.37;;;-147.61;100.00
43486;BME280;30447;48.742;8.972;2023-06-26T04:43:27;52078.37;;;-147.61;100.00
43486;BME280;30447;48.742;8.972;2023-06-26T04:45:54;52078.37;;;-147.61;100.00
43486;BME280;30447;48.742;8.972;2023-06-26T04:48:20;52078.37;;;-147.61;100.00
43486;BME280;30447;48.742;8.972;2023-06-26T04:50:47;52078.37;;;-147.61;100.00
43486;BME280;30447;48.742;8.972;2023-06-26T04:53:20;52078.37;;;-147.61;100.00
43486;BME280;30447;48.742;8.972;2023-06-26T04:55:49;52078.37;;;-147.61;100.00
43486;BME280;30447;48.742;8.972;2023-06-26T04:58:16;52078.37;;;-147.61;100.00
43486;BME280;30447;48.742;8.972;2023-06-26T05:00:43;52078.37;;;-147.61;100.00
43486;BME280;30447;48.742;8.972;2023-06-26T05:03:11;52078.37;;;-147.61;100.00
43486;BME280;30447;48.742;8.972;2023-06-26T05:05:39;52078.37;;;-147.61;100.00
43486;BME280;30447;48.742;8.972;2023-06-26T05:08:22;52078.37;;;-147.61;100.00
43486;BME280;30447;48.742;8.972;2023-06-26T05:10:50;52078.37;;;-147.61;100.00
43486;BME280;30447;48.742;8.972;2023-06-26T05:13:16;52078.37;;;-147.61;100.00
43486;BME280;30447;48.742;8.972;2023-06-26T05:15:46;52078.37;;;-147.61;100.00
43486;BME280;30447;48.742;8.972;2023-06-26T05:18:13;52078.37;;;-147.61;100.00
43486;BME280;30447;48.742;8.972;2023-06-26T05:20:39;52078.37;;;-147.61;100.00
43486;BME280;30447;48.742;8.972;2023-06-26T05:23:06;52078.37;;;-147.61;100.00
43486;BME280;30447;48.742;8.972;2023-06-26T05:25:33;52078.37;;;-147.61;100.00
43486;BME280;30447;48.742;8.972;2023-06-26T05:28:00;52078.37;;;-147.61;100.00
43486;BME280;30447;48.742;8.972;2023-06-26T05:30:27;52078.37;;;-147.61;100.00
43486;BME280;30447;48.742;8.972;2023-06-26T05:32:54;52078.37;;;-147.61;100.00
43486;BME280;30447;48.742;8.972;2023-06-26T05:35:22;52078.37;;;-147.61;100.00
43486;BME280;30447;48.742;8.972;2023-06-26T05:37:50;52078.37;;;-147.61;100.00
43486;BME280;30447;48.742;8.972;2023-06-26T05:40:18;52078.37;;;-147.61;100.00
43486;BME280;30447;48.742;8.972;2023-06-26T05:42:45;52078.37;;;-147.61;100.00
43486;BME280;30447;48.742;8.972;2023-06-26T05:45:12;52078.37;;;-147.61;100.00
43486;BME280;30447;48.742;8.972;2023-06-26T05:47:39;52078.37;;;-147.61;100.00
43486;BME280;30447;48.742;8.972;2023-06-26T05:50:07;52078.37;;;-147.61;100.00
43486;BME280;30447;48.742;8.972;2023-06-26T05:52:36;52078.37;;;-147.61;100.00
43486;BME280;30447;48.742;8.972;2023-06-26T05:55:03;52078.37;;;-147.61;100.00
43486;BME280;30447;48.742;8.972;2023-06-26T05:57:30;52078.37;;;-147.61;100.00
43486;BME280;30447;48.742;8.972;2023-06-26T05:59:57;52078.37;;;-147.61;100.00
43486;BME280;30447;48.742;8.972;2023-06-26T06:02:24;52078.37;;;-147.61;100.00
43486;BME280;30447;48.742;8.972;2023-06-26T06:04:50;52078.37;;;-147.61;100.00
43486;BME280;30447;48.742;8.972;2023-06-26T06:07:17;52078.37;;;-147.61;100.00
43486;BME280;30447;48.742;8.972;2023-06-26T06:09:43;52078.37;;;-147.61;100.00
43486;BME280;30447;48.742;8.972;2023-06-26T06:12:10;52078.37;;;-147.61;100.00
43486;BME280;30447;48.742;8.972;2023-06-26T06:14:37;52078.37;;;-147.61;100.00
43486;BME280;30447;48.742;8.972;2023-06-26T06:17:03;52078.37;;;-147.61;100.00
43486;BME280;30447;48.742;8.972;2023-06-26T06:19:30;52078.37;;;-147.61;100.00
43486;BME280;30447;48.742;8.972;2023-06-26T06:21:56;52078.37;;;-147.61;100.00
43486;BME280;30447;48.742;8.972;2023-06-26T06:24:23;52078.37;;;-147.61;100.00
43486;BME280;30447;48.742;8.972;2023-06-26T06:26:50;52078.37;;;-147.61;100.00
43486;BME280;30447;48.742;8.972;2023-06-26T06:29:16;52078.37;;;-147.61;100.00
43486;BME280;30447;48.742;8.972;2023-06-26T06:31:45;52078.37;;;-147.61;100.00
43486;BME280;30447;48.742;8.972;2023-06-26T06:34:12;52078.37;;;-147.61;100.00
43486;BME280;30447;48.742;8.972;2023-06-26T06:36:39;52078.37;;;-147.61;100.00
43486;BME280;30447;48.742;8.972;2023-06-26T06:39:06;52078.37;;;-147.61;100.00
43486;BME280;30447;48.742;8.972;2023-06-26T06:41:32;52078.37;;;-147.61;100.00
43486;BME280;30447;48.742;8.972;2023-06-26T06:43:59;52078.37;;;-147.61;100.00
43486;BME280;30447;48.742;8.972;2023-06-26T06:46:26;52078.37;;;-147.61;100.00
43486;BME280;30447;48.742;8.972;2023-06-26T06:48:53;52078.37;;;-147.61;100.00
43486;BME280;30447;48.742;8.972;2023-06-26T06:51:20;52078.37;;;-147.61;100.00
43486;BME280;30447;48.742;8.972;2023-06-26T06:53:46;52078.37;;;-147.61;100.00
43486;BME280;30447;48.742;8.972;2023-06-26T06:56:13;52078.37;;;-147.61;100.00
43486;BME280;30447;48.742;8.972;2023-06-26T06:58:40;52078.37;;;-147.61;100.00
43486;BME280;30447;48.742;8.972;2023-06-26T07:01:12;52078.37;;;-147.61;100.00
43486;BME280;30447;48.742;8.972;2023-06-26T07:03:40;52078.37;;;-147.61;100.00
43486;BME280;30447;48.742;8.972;2023-06-26T07:06:06;52078.37;;;-147.61;100.00
43486;BME280;30447;48.742;8.972;2023-06-26T07:08:33;52078.37;;;-147.61;100.00
43486;BME280;30447;48.742;8.972;2023-06-26T07:11:00;52078.37;;;-147.61;100.00
43486;BME280;30447;48.742;8.972;2023-06-26T07:13:26;52078.37;;;-147.61;100.00
43486;BME280;30447;48.742;8.972;2023-06-26T07:15:53;52078.37;;;-147.61;100.00
43486;BME280;30447;48.742;8.972;2023-06-26T07:18:20;52078.37;;;-147.61;100.00
43486;BME280;30447;48.742;8.972;2023-06-26T07:20:46;52078.37;;;-147.61;100.00
43486;BME280;30447;48.742;8.972;2023-06-26T07:23:13;52078.37;;;-147.61;100.00
43486;BME280;30447;48.742;8.972;2023-06-26T07:25:39;52078.37;;;-147.61;100.00
43486;BME280;30447;48.742;8.972;2023-06-26T07:28:11;52078.37;;;-147.61;100.00
43486;BME280;30447;48.742;8.972;2023-06-26T07:30:38;52078.37;;;-147.61;100.00
43486;BME280;30447;48.742;8.972;2023-06-26T07:33:04;52078.37;;;-147.61;100.00
43486;BME280;30447;48.742;8.972;2023-06-26T07:35:31;52078.37;;;-147.61;100.00
43486;BME280;30447;48.742;8.972;2023-06-26T07:37:58;52078.37;;;-147.61;100.00
43486;BME280;30447;48.742;8.972;2023-06-26T07:40:25;52078.37;;;-147.61;100.00
43486;BME280;30447;48.742;8.972;2023-06-26T07:42:53;52078.37;;;-147.61;100.00
43486;BME280;30447;48.742;8.972;2023-06-26T07:45:20;52078.37;;;-147.61;100.00
43486;BME280;30447;48.742;8.972;2023-06-26T07:47:47;52078.37;;;-147.61;100.00
43486;BME280;30447;48.742;8.972;2023-06-26T07:50:13;52078.37;;;-147.61;100.00
43486;BME280;30447;48.742;8.972;2023-06-26T07:52:45;52078.37;;;-147.61;100.00
43486;BME280;30447;48.742;8.972;2023-06-26T07:55:12;96746.59;;;27.93;53.27
43486;BME280;30447;48.742;8.972;2023-06-26T07:57:38;96738.19;;;27.18;54.07
43486;BME280;30447;48.742;8.972;2023-06-26T08:00:06;96753.13;;;27.45;53.87
43486;BME280;30447;48.742;8.972;2023-06-26T08:02:33;96751.09;;;27.62;54.41
43486;BME280;30447;48.742;8.972;2023-06-26T08:04:59;96750.78;;;27.54;53.63
43486;BME280;30447;48.742;8.972;2023-06-26T08:07:26;96743.62;;;27.67;54.30
43486;BME280;30447;48.742;8.972;2023-06-26T08:09:52;96740.19;;;27.78;53.30
43486;BME280;30447;48.742;8.972;2023-06-26T08:12:19;96744.59;;;27.91;53.82
43486;BME280;30447;48.742;8.972;2023-06-26T08:14:46;96741.59;;;27.95;53.68
43486;BME280;30447;48.742;8.972;2023-06-26T08:17:12;96737.00;;;27.97;53.37
43486;BME280;30447;48.742;8.972;2023-06-26T08:19:39;96730.00;;;27.96;53.94
43486;BME280;30447;48.742;8.972;2023-06-26T08:22:05;96743.12;;;28.11;53.39
43486;BME280;30447;48.742;8.972;2023-06-26T08:24:32;96738.25;;;28.05;52.61
43486;BME280;30447;48.742;8.972;2023-06-26T08:26:58;96734.16;;;28.12;53.29
43486;BME280;30447;48.742;8.972;2023-06-26T08:29:25;96737.16;;;28.32;52.18
43486;BME280;30447;48.742;8.972;2023-06-26T08:31:52;96736.31;;;28.31;53.47
43486;BME280;30447;48.742;8.972;2023-06-26T08:34:18;96729.44;;;28.40;53.00
43486;BME280;30447;48.742;8.972;2023-06-26T08:36:45;96735.00;;;28.37;52.27
43486;BME280;30447;48.742;8.972;2023-06-26T08:39:11;96736.25;;;28.44;52.54
43486;BME280;30447;48.742;8.972;2023-06-26T08:41:38;96735.75;;;28.39;51.84
43486;BME280;30447;48.742;8.972;2023-06-26T08:44:05;96726.44;;;28.56;52.02
43486;BME280;30447;48.742;8.972;2023-06-26T08:46:31;96740.03;;;28.64;51.61
43486;BME280;30447;48.742;8.972;2023-06-26T08:49:18;96728.50;;;28.52;52.17
43486;BME280;30447;48.742;8.972;2023-06-26T08:51:57;96724.88;;;28.18;52.43
43486;BME280;30447;48.742;8.972;2023-06-26T08:54:35;96727.94;;;28.72;52.20
43486;BME280;30447;48.742;8.972;2023-06-26T08:57:07;96736.28;;;28.67;52.27
43486;BME280;30447;48.742;8.972;2023-06-26T08:59:34;96729.53;;;28.74;51.93
43486;BME280;30447;48.742;8.972;2023-06-26T09:02:01;96730.94;;;28.67;51.82
43486;BME280;30447;48.742;8.972;2023-06-26T09:04:29;96724.41;;;28.60;52.42
43486;BME280;30447;48.742;8.972;2023-06-26T09:06:56;96733.50;;;28.57;53.27
43486;BME280;30447;48.742;8.972;2023-06-26T09:09:23;96744.28;;;28.78;52.24
43486;BME280;30447;48.742;8.972;2023-06-26T09:11:49;96725.91;;;28.98;51.26
43486;BME280;30447;48.742;8.972;2023-06-26T09:14:16;96733.56;;;29.14;51.60
43486;BME280;30447;48.742;8.972;2023-06-26T09:16:43;96732.72;;;29.25;51.18
43486;BME280;30447;48.742;8.972;2023-06-26T09:19:11;96727.00;;;29.53;50.81
43486;BME280;30447;48.742;8.972;2023-06-26T09:21:39;96730.03;;;29.37;51.04
43486;BME280;30447;48.742;8.972;2023-06-26T09:24:08;96726.72;;;29.67;50.52
43486;BME280;30447;48.742;8.972;2023-06-26T09:26:37;96728.03;;;29.73;50.12
43486;BME280;30447;48.742;8.972;2023-06-26T09:29:05;96723.03;;;29.80;50.34
43486;BME280;30447;48.742;8.972;2023-06-26T09:31:33;96724.66;;;29.71;50.85
43486;BME280;30447;48.742;8.972;2023-06-26T09:34:02;96730.69;;;29.73;50.82
43486;BME280;30447;48.742;8.972;2023-06-26T09:36:31;96728.31;;;29.59;49.43
43486;BME280;30447;48.742;8.972;2023-06-26T09:39:06;96717.88;;;29.44;49.68
43486;BME280;30447;48.742;8.972;2023-06-26T09:41:37;96730.41;;;29.32;49.66
43486;BME280;30447;48.742;8.972;2023-06-26T09:44:06;96728.94;;;29.16;49.67
43486;BME280;30447;48.742;8.972;2023-06-26T09:46:33;96714.25;;;29.45;49.94
43486;BME280;30447;48.742;8.972;2023-06-26T09:49:05;96725.47;;;29.83;48.81
43486;BME280;30447;48.742;8.972;2023-06-26T09:51:41;96724.84;;;30.24;48.40
43486;BME280;30447;48.742;8.972;2023-06-26T09:54:10;96719.56;;;30.01;48.45
43486;BME280;30447;48.742;8.972;2023-06-26T09:56:37;96718.56;;;29.80;49.18
43486;BME280;30447;48.742;8.972;2023-06-26T09:59:05;96721.34;;;29.79;48.99
43486;BME280;30447;48.742;8.972;2023-06-26T10:01:33;96714.16;;;29.79;49.52
43486;BME280;30447;48.742;8.972;2023-06-26T10:04:00;96705.41;;;29.89;49.18
43486;BME280;30447;48.742;8.972;2023-06-26T10:06:36;96718.50;;;29.59;49.45
43486;BME280;30447;48.742;8.972;2023-06-26T10:09:08;96722.34;;;29.66;49.69
43486;BME280;30447;48.742;8.972;2023-06-26T10:11:48;96743.50;;;29.58;50.70
43486;BME280;30447;48.742;8.972;2023-06-26T10:14:21;96737.28;;;29.46;52.44
43486;BME280;30447;48.742;8.972;2023-06-26T10:16:57;96745.06;;;29.38;53.61
43486;BME280;30447;48.742;8.972;2023-06-26T10:19:27;96735.38;;;29.02;55.30
43486;BME280;30447;48.742;8.972;2023-06-26T10:21:57;96738.53;;;28.96;55.63
43486;BME280;30447;48.742;8.972;2023-06-26T10:24:28;96759.19;;;28.81;55.94
43486;BME280;30447;48.742;8.972;2023-06-26T10:27:03;96763.13;;;29.00;55.51
43486;BME280;30447;48.742;8.972;2023-06-26T10:29:36;96766.28;;;29.05;55.76
43486;BME280;30447;48.742;8.972;2023-06-26T10:32:05;96767.94;;;28.83;56.37
43486;BME280;30447;48.742;8.972;2023-06-26T10:34:35;96765.06;;;28.98;55.91
43486;BME280;30447;48.742;8.972;2023-06-26T10:37:03;96777.84;;;28.81;55.49
43486;BME280;30447;48.742;8.972;2023-06-26T10:39:50;96769.25;;;28.77;55.87
43486;BME280;30447;48.742;8.972;2023-06-26T10:42:35;96769.53;;;28.97;55.73
43486;BME280;30447;48.742;8.972;2023-06-26T10:45:10;96776.66;;;28.85;55.78
43486;BME280;30447;48.742;8.972;2023-06-26T10:47:51;96773.66;;;28.90;55.41
43486;BME280;30447;48.742;8.972;2023-06-26T10:50:29;96774.22;;;28.82;55.59
43486;BME280;30447;48.742;8.972;2023-06-26T10:55:56;96782.75;;;29.22;54.19
43486;BME280;30447;48.742;8.972;2023-06-26T11:01:19;96782.50;;;29.36;54.99
43486;BME280;30447;48.742;8.972;2023-06-26T11:06:33;96786.69;;;28.82;55.66
43486;BME280;30447;48.742;8.972;2023-06-26T11:09:07;96789.09;;;29.32;55.33
43486;BME280;30447;48.742;8.972;2023-06-26T11:14:25;96788.47;;;29.17;55.44
43486;BME280;30447;48.742;8.972;2023-06-26T11:16:56;96784.81;;;29.07;55.84
43486;BME280;30447;48.742;8.972;2023-06-26T11:19:26;96784.44;;;28.88;57.06
43486;BME280;30447;48.742;8.972;2023-06-26T11:22:15;96797.91;;;28.98;56.28
43486;BME280;30447;48.742;8.972;2023-06-26T11:24:43;96791.03;;;29.07;56.06
43486;BME280;30447;48.742;8.972;2023-06-26T11:27:10;96783.25;;;28.93;56.90
43486;BME280;30447;48.742;8.972;2023-06-26T11:29:37;96790.09;;;28.84;56.43
43486;BME280;30447;48.742;8.972;2023-06-26T11:32:04;96791.47;;;29.01;56.74
43486;BME280;30447;48.742;8.972;2023-06-26T11:34:33;96804.97;;;29.11;57.13
43486;BME280;30447;48.742;8.972;2023-06-26T11:37:00;96785.53;;;29.09;56.85
43486;BME280;30447;48.742;8.972;2023-06-26T11:39:27;96804.97;;;29.11;57.84
43486;BME280;30447;48.742;8.972;2023-06-26T11:41:54;96800.09;;;29.16;56.24
43486;BME280;30447;48.742;8.972;2023-06-26T11:44:22;96802.03;;;29.14;57.17
43486;BME280;30447;48.742;8.972;2023-06-26T11:46:51;96803.50;;;29.18;56.88
43486;BME280;30447;48.742;8.972;2023-06-26T11:49:18;96811.53;;;29.29;57.73
43486;BME280;30447;48.742;8.972;2023-06-26T11:51:46;96808.59;;;29.67;56.44
43486;BME280;30447;48.742;8.972;2023-06-26T11:54:13;96801.31;;;29.00;57.72
43486;BME280;30447;48.742;8.972;2023-06-26T11:56:40;96807.37;;;29.37;57.44
43486;BME280;30447;48.742;8.972;2023-06-26T11:59:11;96807.63;;;29.34;58.12
43486;BME280;30447;48.742;8.972;2023-06-26T12:01:43;96829.06;;;29.21;58.52
43486;BME280;30447;48.742;8.972;2023-06-26T12:04:16;96809.81;;;29.17;58.11
43486;BME280;30447;48.742;8.972;2023-06-26T12:06:49;96803.00;;;29.01;58.23
43486;BME280;30447;48.742;8.972;2023-06-26T12:09:19;96809.31;;;28.64;60.29
43486;BME280;30447;48.742;8.972;2023-06-26T12:11:49;96805.06;;;29.09;59.51
43486;BME280;30447;48.742;8.972;2023-06-26T12:14:20;96808.81;;;28.95;59.90
43486;BME280;30447;48.742;8.972;2023-06-26T12:16:49;96808.03;;;28.82;59.78
43486;BME280;30447;48.742;8.972;2023-06-26T12:19:16;96810.13;;;28.89;59.01
43486;BME280;30447;48.742;8.972;2023-06-26T12:21:46;96818.84;;;28.91;59.33
43486;BME280;30447;48.742;8.972;2023-06-26T12:24:16;96816.19;;;28.91;59.45
43486;BME280;30447;48.742;8.972;2023-06-26T12:26:46;96816.59;;;29.33;58.22
43486;BME280;30447;48.742;8.972;2023-06-26T12:29:17;96813.34;;;29.17;58.98
43486;BME280;30447;48.742;8.972;2023-06-26T12:31:49;96814.81;;;28.86;59.61
43486;BME280;30447;48.742;8.972;2023-06-26T12:34:27;96820.69;;;28.67;59.94
43486;BME280;30447;48.742;8.972;2023-06-26T12:37:17;96819.69;;;28.56;60.38
43486;BME280;30447;48.742;8.972;2023-06-26T12:39:57;96816.44;;;28.88;59.39
43486;BME280;30447;48.742;8.972;2023-06-26T12:42:30;96819.41;;;28.84;59.04
43486;BME280;30447;48.742;8.972;2023-06-26T12:44:59;96817.81;;;28.81;58.84
43486;BME280;30447;48.742;8.972;2023-06-26T12:47:37;96825.03;;;28.92;58.78
43486;BME280;30447;48.742;8.972;2023-06-26T12:50:05;96816.22;;;28.67;59.05
43486;BME280;30447;48.742;8.972;2023-06-26T12:52:32;96822.16;;;28.71;59.51
43486;BME280;30447;48.742;8.972;2023-06-26T12:54:59;96822.53;;;28.77;58.67
43486;BME280;30447;48.742;8.972;2023-06-26T12:57:25;96812.38;;;28.83;59.13
43486;BME280;30447;48.742;8.972;2023-06-26T12:59:52;96810.00;;;28.91;58.42
43486;BME280;30447;48.742;8.972;2023-06-26T13:02:19;96825.97;;;28.80;58.01
43486;BME280;30447;48.742;8.972;2023-06-26T13:04:46;96817.31;;;28.64;58.38
43486;BME280;30447;48.742;8.972;2023-06-26T13:07:13;96834.75;;;28.69;58.43
43486;BME280;30447;48.742;8.972;2023-06-26T13:09:39;96827.59;;;29.05;57.38
43486;BME280;30447;48.742;8.972;2023-06-26T13:12:07;96816.81;;;29.07;57.24
43486;BME280;30447;48.742;8.972;2023-06-26T13:14:34;96817.91;;;28.68;57.69